createdAt,value
2022-10-26T07:00:09.186Z,98763.31
2022-10-26T07:03:18.995Z,98764.72
2022-10-26T07:06:28.780Z,98770.66
2022-10-26T07:09:38.709Z,98766.81
2022-10-26T07:12:49.577Z,98767.91
2022-10-26T07:16:00.602Z,98758.00
2022-10-26T07:19:10.235Z,98768.72
2022-10-26T07:22:19.973Z,98761.41
2022-10-26T07:25:30.074Z,98761.88
2022-10-26T07:28:39.727Z,98756.91
2022-10-26T07:31:51.129Z,98760.19
2022-10-26T07:35:00.934Z,98762.81
2022-10-26T07:38:10.721Z,98768.09
2022-10-26T07:41:20.612Z,98774.66
2022-10-26T07:44:30.234Z,98788.47
2022-10-26T07:47:44.097Z,98782.31
2022-10-26T07:50:53.898Z,98788.53
2022-10-26T07:54:03.782Z,98790.13
2022-10-26T07:57:13.543Z,98798.28
2022-10-26T08:00:23.439Z,98802.44
2022-10-26T08:03:34.652Z,98801.34
2022-10-26T08:06:44.321Z,98805.22
2022-10-26T08:09:54.178Z,98808.25
2022-10-26T08:13:04.005Z,98814.66
2022-10-26T08:16:14.348Z,98812.44
2022-10-26T08:19:25.483Z,98815.91
2022-10-26T08:22:35.231Z,98819.13
2022-10-26T08:25:44.998Z,98813.94
2022-10-26T08:28:54.924Z,98823.81
2022-10-26T08:32:04.887Z,98816.34
2022-10-26T08:35:16.247Z,98813.16
2022-10-26T08:38:34.237Z,98829.19
2022-10-26T08:41:46.407Z,98819.31
2022-10-26T08:45:03.342Z,98835.34
2022-10-26T08:55:34.658Z,98840.13
2022-10-26T08:58:53.257Z,98837.19
2022-10-26T09:02:03.116Z,98850.09
2022-10-26T09:05:17.137Z,98849.97
2022-10-26T09:08:36.762Z,98849.25
2022-10-26T09:11:58.745Z,98845.41
2022-10-26T09:15:18.495Z,98836.03
2022-10-26T09:26:55.941Z,98838.47
2022-10-26T09:30:15.469Z,98830.94
2022-10-26T09:37:59.387Z,98863.53
2022-10-26T09:41:19.164Z,98862.31
2022-10-26T09:44:35.799Z,98871.22
2022-10-26T09:47:52.768Z,98875.06
2022-10-26T09:51:04.800Z,98880.41
2022-10-26T09:54:17.683Z,98886.16
2022-10-26T09:57:27.509Z,98899.84
2022-10-26T10:00:39.739Z,98912.50
2022-10-26T10:03:49.262Z,98907.91
2022-10-26T10:07:13.944Z,98922.81
2022-10-26T10:10:24.156Z,98916.94
2022-10-26T10:13:36.314Z,98922.91
2022-10-26T10:16:55.878Z,98928.78
2022-10-26T10:20:12.700Z,98926.88
2022-10-26T10:23:28.541Z,98929.59
2022-10-26T10:26:57.626Z,98936.50
2022-10-26T10:30:22.829Z,98947.25
2022-10-26T10:33:38.453Z,98955.84
2022-10-26T10:36:48.003Z,98959.66
2022-10-26T10:39:59.367Z,98965.94
2022-10-26T10:43:14.360Z,98968.63
2022-10-26T10:46:27.769Z,98965.34
2022-10-26T10:49:39.440Z,98979.75
2022-10-26T10:52:49.477Z,98978.72
2022-10-26T10:56:15.527Z,98980.88
2022-10-26T10:59:42.562Z,98979.97
2022-10-26T11:03:05.967Z,98983.91
2022-10-26T11:06:20.706Z,98990.16
2022-10-26T11:09:33.667Z,98989.00
2022-10-26T11:12:48.897Z,98981.50
2022-10-26T11:16:03.876Z,98980.72
2022-10-26T11:19:20.669Z,98976.22
2022-10-26T11:22:36.888Z,98984.41
2022-10-26T11:25:52.194Z,98981.31
2022-10-26T11:29:07.363Z,98983.28
2022-10-26T11:32:22.093Z,98985.09
2022-10-26T11:35:36.639Z,98987.97
2022-10-26T11:38:57.261Z,98980.88
2022-10-26T11:42:14.319Z,98977.75
2022-10-26T11:45:26.871Z,98978.09
2022-10-26T11:48:42.295Z,98971.25
2022-10-26T11:51:57.106Z,98988.38
2022-10-26T11:55:11.747Z,98981.25
2022-10-26T11:58:25.535Z,98982.47
2022-10-26T12:01:35.746Z,98992.41
2022-10-26T12:04:50.764Z,98997.94
2022-10-26T12:08:05.479Z,98995.59
2022-10-26T12:11:35.315Z,98992.69
2022-10-26T12:14:52.803Z,98995.19
2022-10-26T12:18:10.169Z,98997.94
2022-10-26T12:21:19.974Z,99005.31
2022-10-26T12:24:35.071Z,99014.59
2022-10-26T12:27:54.978Z,99005.72
2022-10-26T12:31:31.369Z,99015.00
2022-10-26T12:35:01.318Z,99011.44
2022-10-26T12:38:49.611Z,99015.00
2022-10-26T12:42:27.663Z,99007.91
2022-10-26T12:45:38.472Z,99015.00
2022-10-26T12:48:49.295Z,99009.41
2022-10-26T12:51:59.079Z,99016.16
2022-10-26T12:55:31.630Z,99001.25
2022-10-26T12:59:04.460Z,99020.13
2022-10-26T13:02:41.077Z,99029.25
2022-10-26T13:06:12.872Z,99019.91
2022-10-26T13:09:25.222Z,99021.38
2022-10-26T13:12:48.290Z,99025.44
2022-10-26T13:16:00.239Z,99025.38
2022-10-26T13:19:26.642Z,99033.41
2022-10-26T13:22:46.896Z,99037.38
2022-10-26T13:26:05.603Z,99044.75
2022-10-26T13:29:16.723Z,99047.59
2022-10-26T13:32:26.230Z,99047.81
2022-10-26T13:35:44.665Z,99044.91
2022-10-26T13:38:55.241Z,99044.03
2022-10-26T13:42:09.960Z,99050.81
2022-10-26T13:45:23.642Z,99050.69
2022-10-26T13:48:38.871Z,99060.41
2022-10-26T13:51:52.831Z,99065.25
2022-10-26T13:55:09.020Z,99061.34
2022-10-26T13:58:23.902Z,99068.97
2022-10-26T14:01:34.091Z,99066.84
2022-10-26T14:04:47.726Z,99070.47
2022-10-26T14:08:00.037Z,99070.56
2022-10-26T14:11:13.669Z,99075.88
2022-10-26T14:14:26.975Z,99080.56
2022-10-26T14:17:37.033Z,99075.97
2022-10-26T14:20:50.886Z,99082.28
2022-10-26T14:24:07.505Z,99084.66
2022-10-26T14:27:18.648Z,99082.06
2022-10-26T14:30:30.855Z,99089.66
2022-10-26T14:33:40.526Z,99089.25
2022-10-26T14:36:53.920Z,99094.28
2022-10-26T14:40:07.994Z,99098.44
2022-10-26T14:43:21.637Z,99097.34
2022-10-26T14:46:36.231Z,99098.63
2022-10-26T14:49:47.325Z,99100.06
2022-10-26T14:53:00.780Z,99106.94
2022-10-26T14:56:24.007Z,99104.63
2022-10-26T14:59:33.613Z,99115.78
2022-10-26T15:02:44.753Z,99116.84
2022-10-26T15:05:54.581Z,99126.25
2022-10-26T15:09:06.882Z,99125.38
2022-10-26T15:12:23.468Z,99122.66
2022-10-26T15:15:35.251Z,99126.91
2022-10-26T15:18:48.033Z,99140.25
2022-10-26T15:21:58.213Z,99139.09
2022-10-26T15:25:08.725Z,99139.56
2022-10-26T15:28:26.080Z,99144.28
2022-10-26T15:31:35.816Z,99155.06
2022-10-26T15:34:49.728Z,99155.28
2022-10-26T15:38:00.917Z,99159.81
2022-10-26T15:41:17.526Z,99166.03
2022-10-26T15:44:30.982Z,99172.31
2022-10-26T15:47:41.506Z,99157.91
2022-10-26T15:50:56.805Z,99163.25
2022-10-26T15:54:06.806Z,99168.50
2022-10-26T15:57:19.260Z,99174.69
2022-10-26T16:00:32.159Z,99176.66
2022-10-26T16:03:41.687Z,99187.25
2022-10-26T16:06:51.189Z,99187.47
2022-10-26T16:10:00.853Z,99191.97
2022-10-26T16:13:13.548Z,99197.41
2022-10-26T16:16:24.346Z,99200.09
2022-10-26T16:19:34.570Z,99197.69
2022-10-26T16:22:48.072Z,99202.97
2022-10-26T16:25:57.696Z,99216.00
2022-10-26T16:29:07.324Z,99212.84
2022-10-26T16:32:18.067Z,99217.44
2022-10-26T16:35:27.584Z,99222.09
2022-10-26T16:38:37.351Z,99227.50
2022-10-26T16:41:49.806Z,99233.03
2022-10-26T16:45:02.612Z,99241.28
2022-10-26T16:48:15.958Z,99242.56
2022-10-26T16:51:27.540Z,99245.38
2022-10-26T16:54:37.087Z,99242.34
2022-10-26T16:57:46.646Z,99247.09
2022-10-26T17:00:56.232Z,99250.56
2022-10-26T17:04:07.114Z,99257.69
2022-10-26T17:07:16.875Z,99259.81
2022-10-26T17:10:27.822Z,99273.38
2022-10-26T17:13:38.021Z,99273.59
2022-10-26T17:16:47.519Z,99279.03
2022-10-26T17:19:59.358Z,99282.53
2022-10-26T17:23:09.218Z,99286.25
2022-10-26T17:26:18.707Z,99282.28
2022-10-26T17:29:29.071Z,99303.13
2022-10-26T17:32:38.626Z,99315.34
2022-10-26T17:35:53.814Z,99316.53
2022-10-26T17:39:03.411Z,99328.09
2022-10-26T17:42:12.948Z,99334.66
2022-10-26T17:45:22.566Z,99341.22
2022-10-26T17:48:32.700Z,99340.22
2022-10-26T17:51:43.547Z,99348.75
2022-10-26T17:54:53.081Z,99360.81
2022-10-26T17:58:02.630Z,99355.25
2022-10-26T18:01:14.737Z,99366.97
2022-10-26T18:04:24.380Z,99370.81
2022-10-26T18:07:35.363Z,99367.91
2022-10-26T18:10:47.812Z,99374.44
2022-10-26T18:13:58.328Z,99368.25
2022-10-26T18:17:07.826Z,99372.19
2022-10-26T18:20:20.444Z,99383.88
2022-10-26T18:23:31.266Z,99386.63
2022-10-26T18:26:40.768Z,99397.66
2022-10-26T18:29:50.282Z,99404.38
2022-10-26T18:32:59.810Z,99409.34
2022-10-26T18:36:11.397Z,99403.72
2022-10-26T18:39:22.357Z,99404.19
2022-10-26T18:42:31.820Z,99405.31
2022-10-26T18:45:41.384Z,99404.88
2022-10-26T18:48:51.649Z,99397.47
2022-10-26T18:52:01.139Z,99404.81
2022-10-26T18:55:12.012Z,99405.34
2022-10-26T18:58:21.462Z,99406.94
2022-10-26T19:01:33.031Z,99413.44
2022-10-26T19:04:42.639Z,99412.19
2022-10-26T19:07:52.246Z,99413.44
2022-10-26T19:11:03.697Z,99420.84
2022-10-26T19:14:13.703Z,99415.34
2022-10-26T19:17:23.246Z,99418.34
2022-10-26T19:20:32.806Z,99410.28
2022-10-26T19:23:43.922Z,99413.31
2022-10-26T19:26:54.835Z,99425.94
2022-10-26T19:30:08.348Z,99422.09
2022-10-26T19:33:17.871Z,99426.03
2022-10-26T19:36:28.089Z,99430.97
2022-10-26T19:39:37.566Z,99434.97
2022-10-26T19:42:48.442Z,99432.84
2022-10-26T19:45:58.446Z,99439.34
2022-10-26T19:49:08.368Z,99441.31
